South Arlington, Ohio
Current Conditions -  °F | °C
As of 11:54 AM on Thursday 27 Nov 2014 (Local Time) from KAKR Reporting Station
Light Snow Light Snow  
Wind Chill: 24°   Ceiling: 1700
Heat Index: 32°   Visibility: 3mi
Dew Point: 26°   Wind: 10mph
Humidity: 79%   Direction: 320°NW
Pressure: 30.12"   Gusts: NA
Location:  41.0384°N, 81.4827°W
Report Text: KAKR 271654Z AUTO 32009KT 3SM -SN BKN017 OVC025 00/M03 A3012 RMK AO2 SNB01E11B33 SLP208 P0000 T00001033 $
Loading
Personal Weather Stations






























Interactive Weather Map New forecast layout! Learn more

10-Day Weather Forecast

Advertisements
Track Severe Weather on mobile